createdAt,value
2022-10-04T00:02:04.412Z,17.85
2022-10-04T00:04:44.021Z,11.93
2022-10-04T00:07:13.866Z,20.58
2022-10-04T00:09:47.347Z,13.02
2022-10-04T00:12:28.460Z,13.45
2022-10-04T00:15:03.241Z,15.57
2022-10-04T00:17:32.429Z,14.05
2022-10-04T00:19:59.140Z,16.00
2022-10-04T00:22:30.631Z,19.48
2022-10-04T00:28:35.384Z,13.88
2022-10-04T00:31:24.955Z,18.88
2022-10-04T00:34:03.811Z,18.33
2022-10-04T00:36:38.950Z,15.77
2022-10-04T00:39:08.350Z,16.48
2022-10-04T00:41:47.027Z,17.75
2022-10-04T00:44:50.662Z,16.77
2022-10-04T00:47:57.265Z,18.95
2022-10-04T00:50:34.938Z,16.30
2022-10-04T00:53:04.301Z,22.00
2022-10-04T00:55:49.350Z,13.68
2022-10-04T00:58:29.073Z,18.27
2022-10-04T01:00:57.518Z,12.02
2022-10-04T01:03:34.506Z,17.23
2022-10-04T01:06:05.434Z,13.68
2022-10-04T01:08:54.514Z,14.00
2022-10-04T01:11:28.487Z,14.80
2022-10-04T01:14:02.162Z,15.20
2022-10-04T01:16:33.448Z,14.57
2022-10-04T01:19:25.426Z,12.98
2022-10-04T01:22:14.595Z,10.27
2022-10-04T01:24:45.869Z,14.05
2022-10-04T01:27:33.132Z,13.18
2022-10-04T01:30:03.046Z,20.80
2022-10-04T01:32:31.497Z,13.82
2022-10-04T01:34:58.581Z,14.60
2022-10-04T01:37:27.817Z,14.07
2022-10-04T01:39:54.512Z,12.38
2022-10-04T01:42:27.435Z,19.88
2022-10-04T01:45:24.829Z,12.63
2022-10-04T01:48:01.582Z,13.85
2022-10-04T01:50:41.888Z,14.13
2022-10-04T01:53:24.028Z,14.45
2022-10-04T01:56:08.338Z,14.50
2022-10-04T01:58:48.513Z,15.27
2022-10-04T02:01:31.660Z,17.08
2022-10-04T02:04:04.407Z,9.73
2022-10-04T02:06:38.158Z,21.08
2022-10-04T02:09:15.317Z,13.93
2022-10-04T02:11:44.941Z,22.85
2022-10-04T02:14:17.589Z,15.60
2022-10-04T02:16:46.438Z,15.75
2022-10-04T02:19:14.394Z,15.88
2022-10-04T02:21:42.688Z,15.25
2022-10-04T02:24:10.289Z,15.15
2022-10-04T02:26:36.997Z,19.42
2022-10-04T02:29:03.777Z,13.02
2022-10-04T02:31:48.944Z,23.33
2022-10-04T02:34:19.000Z,16.30
2022-10-04T02:36:49.174Z,17.85
2022-10-04T02:39:23.418Z,15.48
2022-10-04T02:41:54.613Z,14.75
2022-10-04T02:44:24.089Z,18.48
2022-10-04T02:46:54.190Z,23.00
2022-10-04T02:49:32.062Z,19.08
2022-10-04T02:52:12.961Z,15.68
2022-10-04T02:54:46.082Z,16.20
2022-10-04T02:57:19.572Z,16.92
2022-10-04T02:59:46.983Z,12.32
2022-10-04T03:02:29.386Z,13.45
2022-10-04T03:05:07.238Z,15.48
2022-10-04T03:07:35.473Z,22.13
2022-10-04T03:10:06.480Z,16.40
2022-10-04T03:12:33.954Z,19.05
2022-10-04T03:15:00.722Z,14.43
2022-10-04T03:17:29.625Z,14.85
2022-10-04T03:19:57.725Z,18.25
2022-10-04T03:22:24.378Z,14.55
2022-10-04T03:24:56.105Z,17.45
2022-10-04T03:27:27.929Z,19.30
2022-10-04T03:29:59.143Z,15.63
2022-10-04T03:32:27.062Z,12.75
2022-10-04T03:35:03.019Z,12.77
2022-10-04T03:37:34.512Z,19.95
2022-10-04T03:40:02.903Z,18.13
2022-10-04T03:42:34.293Z,15.73
2022-10-04T03:45:07.008Z,15.93
2022-10-04T03:47:37.936Z,17.25
2022-10-04T03:50:29.586Z,16.85
2022-10-04T03:53:05.561Z,15.32
2022-10-04T03:55:35.273Z,13.27
2022-10-04T03:58:02.741Z,15.15
2022-10-04T04:00:29.620Z,15.50
2022-10-04T04:03:02.679Z,18.38
2022-10-04T04:05:40.718Z,15.93
2022-10-04T04:08:26.708Z,11.02
2022-10-04T04:10:55.748Z,13.23
2022-10-04T04:13:37.742Z,13.48
2022-10-04T04:16:05.590Z,13.77
2022-10-04T04:18:44.289Z,17.73
2022-10-04T04:21:18.547Z,10.70
2022-10-04T04:23:50.372Z,12.98
2022-10-04T04:26:35.800Z,13.40
2022-10-04T04:29:12.244Z,15.57
2022-10-04T04:31:46.117Z,21.20
2022-10-04T04:34:27.775Z,12.40
2022-10-04T04:37:01.939Z,18.60
2022-10-04T04:42:13.866Z,9.65
2022-10-04T04:44:56.865Z,19.02
2022-10-04T04:47:33.752Z,13.98
2022-10-04T04:50:30.445Z,15.57
2022-10-04T04:53:05.085Z,16.48
2022-10-04T04:56:05.203Z,12.32
2022-10-04T04:58:43.353Z,14.98
2022-10-04T05:01:23.302Z,11.93
2022-10-04T05:04:05.306Z,11.65
2022-10-04T05:06:34.161Z,17.70
2022-10-04T05:09:01.868Z,14.10
2022-10-04T05:11:31.966Z,20.23
2022-10-04T05:14:12.026Z,13.55
2022-10-04T05:16:54.258Z,15.43
2022-10-04T05:19:24.040Z,16.42
2022-10-04T05:21:53.892Z,16.67
2022-10-04T05:24:33.488Z,18.60
2022-10-04T05:27:07.588Z,12.90
2022-10-04T05:29:38.353Z,10.35
2022-10-04T05:32:26.856Z,18.10
2022-10-04T05:34:54.602Z,16.20
2022-10-04T05:37:33.314Z,14.10
2022-10-04T05:40:15.144Z,19.75
2022-10-04T05:42:45.608Z,16.55
2022-10-04T05:45:20.731Z,18.00
2022-10-04T05:47:58.650Z,18.02
2022-10-04T05:50:30.181Z,16.35
2022-10-04T05:53:22.658Z,15.23
2022-10-04T05:56:00.187Z,17.58
2022-10-04T05:58:35.694Z,11.88
2022-10-04T06:01:26.115Z,17.10
2022-10-04T06:04:23.642Z,11.88
2022-10-04T06:06:56.163Z,23.27
2022-10-04T06:09:38.700Z,23.17
2022-10-04T06:12:09.701Z,16.02
2022-10-04T06:15:17.085Z,21.73
2022-10-04T06:18:07.589Z,24.42
2022-10-04T06:20:46.179Z,18.83
2022-10-04T06:23:16.005Z,15.88
2022-10-04T06:25:49.496Z,17.60
2022-10-04T06:28:39.623Z,17.45
2022-10-04T06:31:18.478Z,19.35
2022-10-04T06:34:22.683Z,19.48
2022-10-04T06:37:15.653Z,16.80
2022-10-04T06:40:06.471Z,14.50
2022-10-04T06:42:42.729Z,19.27
2022-10-04T06:45:31.108Z,18.85
2022-10-04T06:48:07.036Z,14.43
2022-10-04T06:50:39.502Z,15.57
2022-10-04T06:53:24.039Z,23.27
2022-10-04T06:58:53.927Z,20.33
2022-10-04T07:01:28.428Z,18.48
2022-10-04T07:04:00.901Z,12.15
2022-10-04T07:07:24.312Z,13.98
2022-10-04T07:10:01.719Z,12.20
2022-10-04T07:12:31.859Z,20.08
2022-10-04T07:15:03.104Z,16.33
2022-10-04T07:17:37.370Z,18.45
2022-10-04T07:20:07.566Z,14.05
2022-10-04T07:22:51.165Z,18.40
2022-10-04T07:25:58.642Z,15.63
2022-10-04T07:28:59.363Z,15.90
2022-10-04T07:31:32.426Z,17.55
2022-10-04T07:34:12.675Z,20.30
2022-10-04T07:36:56.578Z,16.40
2022-10-04T07:39:39.101Z,15.73
2022-10-04T07:42:41.994Z,15.35
2022-10-04T07:45:29.746Z,11.98
2022-10-04T07:48:27.048Z,17.27
2022-10-04T07:50:59.399Z,12.70
2022-10-04T07:53:33.983Z,12.20
2022-10-04T07:56:26.009Z,11.50
2022-10-04T07:59:20.993Z,16.95
2022-10-04T08:02:01.960Z,11.63
2022-10-04T08:04:59.069Z,18.08
2022-10-04T08:07:43.237Z,12.57
2022-10-04T08:10:43.928Z,17.02
2022-10-04T08:13:28.063Z,10.93
2022-10-04T08:16:02.978Z,15.40
2022-10-04T08:19:06.482Z,10.52
2022-10-04T08:21:50.689Z,10.50
2022-10-04T08:24:53.611Z,11.27
2022-10-04T08:27:37.033Z,12.93
2022-10-04T08:30:11.930Z,11.52
2022-10-04T08:33:07.630Z,12.90
2022-10-04T08:35:38.606Z,10.77
2022-10-04T08:38:21.200Z,13.77
2022-10-04T08:41:03.770Z,11.77
2022-10-04T08:43:59.796Z,10.27
2022-10-04T08:46:32.462Z,13.25
2022-10-04T08:49:21.544Z,11.85
2022-10-04T08:52:41.113Z,13.77
2022-10-04T08:55:43.945Z,10.80
2022-10-04T08:58:15.843Z,17.20
2022-10-04T09:01:17.361Z,19.85
2022-10-04T09:04:05.097Z,13.43
2022-10-04T09:07:16.318Z,17.38
2022-10-04T09:10:25.391Z,13.98
2022-10-04T09:12:54.825Z,11.48
2022-10-04T09:15:57.501Z,12.95
2022-10-04T09:18:42.790Z,14.40
2022-10-04T09:21:26.515Z,20.73
2022-10-04T09:24:31.074Z,11.15
2022-10-04T09:27:43.196Z,12.52
2022-10-04T09:30:20.698Z,10.82
2022-10-04T09:33:25.931Z,10.25
2022-10-04T09:36:28.618Z,13.23
2022-10-04T09:39:28.555Z,12.18
2022-10-04T09:41:58.365Z,11.68
2022-10-04T09:44:47.708Z,18.27
2022-10-04T09:47:31.978Z,11.18
2022-10-04T09:50:18.916Z,9.50
2022-10-04T09:52:57.175Z,11.00
2022-10-04T09:55:48.303Z,8.43
2022-10-04T09:59:03.299Z,14.35
2022-10-04T10:01:41.284Z,9.10
2022-10-04T10:04:36.651Z,11.95
2022-10-04T10:07:43.509Z,9.75
2022-10-04T10:10:45.861Z,5.07
2022-10-04T10:13:53.013Z,6.25
2022-10-04T10:16:41.054Z,8.35
2022-10-04T10:19:08.087Z,6.60
2022-10-04T10:21:55.169Z,8.15
2022-10-04T10:24:43.929Z,6.32
2022-10-04T10:27:48.738Z,5.18
2022-10-04T10:30:39.360Z,7.18
2022-10-04T10:33:22.783Z,9.50
2022-10-04T10:36:27.096Z,7.10
2022-10-04T10:39:36.752Z,8.18
2022-10-04T10:42:27.914Z,11.55
2022-10-04T10:45:19.764Z,9.18
2022-10-04T10:47:52.379Z,10.38
2022-10-04T10:50:21.946Z,10.70
2022-10-04T10:53:08.551Z,6.82
2022-10-04T10:56:04.988Z,10.13
2022-10-04T10:58:50.440Z,9.15
2022-10-04T11:01:38.476Z,6.07
2022-10-04T11:04:26.467Z,9.38
2022-10-04T11:07:16.396Z,7.75
2022-10-04T11:09:46.018Z,7.07
2022-10-04T11:12:42.429Z,9.32
2022-10-04T11:15:47.475Z,11.20
2022-10-04T11:21:16.059Z,10.13
2022-10-04T11:24:15.948Z,7.85
2022-10-04T11:26:57.691Z,9.57
2022-10-04T11:29:39.877Z,8.75
2022-10-04T11:32:40.273Z,5.25
2022-10-04T11:35:36.873Z,9.07
2022-10-04T11:38:30.053Z,12.18
2022-10-04T11:41:41.826Z,19.35
2022-10-04T11:44:48.401Z,24.33
2022-10-04T11:47:33.618Z,14.25
2022-10-04T11:50:22.537Z,7.65
2022-10-04T11:53:25.912Z,7.15
2022-10-04T11:56:34.026Z,8.57
2022-10-04T11:59:27.479Z,4.80
2022-10-04T12:02:16.498Z,8.18
2022-10-04T12:05:02.190Z,9.10
2022-10-04T12:08:01.427Z,12.80
2022-10-04T12:10:39.875Z,9.32
2022-10-04T12:13:25.087Z,7.43
2022-10-04T12:16:33.999Z,7.75
2022-10-04T12:19:27.891Z,8.48
2022-10-04T12:22:20.931Z,6.33
2022-10-04T12:24:59.556Z,8.05
2022-10-04T12:27:32.443Z,9.57
2022-10-04T12:30:21.054Z,10.63
2022-10-04T12:33:19.068Z,11.90
2022-10-04T12:35:52.056Z,8.95
2022-10-04T12:38:44.950Z,12.88
2022-10-04T12:41:33.190Z,11.48
2022-10-04T12:44:23.894Z,7.38
2022-10-04T12:46:56.397Z,8.60
2022-10-04T12:49:59.081Z,7.13
2022-10-04T12:52:32.910Z,9.07
2022-10-04T12:55:23.210Z,32.92
2022-10-04T12:57:59.188Z,11.13
2022-10-04T13:01:03.540Z,14.57
2022-10-04T13:07:09.065Z,6.47
2022-10-04T13:10:25.536Z,9.30
2022-10-04T13:13:10.525Z,7.38
2022-10-04T13:18:52.513Z,13.85
2022-10-04T13:21:39.372Z,9.40
2022-10-04T13:24:20.928Z,9.65
2022-10-04T13:27:00.065Z,7.93
2022-10-04T13:29:51.005Z,9.00
2022-10-04T13:32:27.028Z,8.25
2022-10-04T13:35:04.097Z,9.23
2022-10-04T13:37:42.898Z,10.63
2022-10-04T13:40:34.238Z,8.10
2022-10-04T13:43:22.210Z,9.27
2022-10-04T13:46:18.272Z,7.40
2022-10-04T13:48:55.518Z,8.88
2022-10-04T13:51:45.839Z,9.65
2022-10-04T13:54:53.884Z,10.52
2022-10-04T13:57:30.477Z,11.52
2022-10-04T14:00:07.110Z,8.98
2022-10-04T14:02:46.888Z,9.25
2022-10-04T14:05:25.734Z,8.93
2022-10-04T14:08:28.131Z,9.90
2022-10-04T14:11:13.540Z,9.13
2022-10-04T14:14:12.429Z,12.38
2022-10-04T14:16:42.705Z,7.40
2022-10-04T14:19:42.605Z,9.43
2022-10-04T14:22:26.303Z,14.63
2022-10-04T14:25:21.330Z,9.43
2022-10-04T14:28:06.973Z,9.98
2022-10-04T14:31:24.178Z,4.95
2022-10-04T14:34:09.152Z,8.30
2022-10-04T14:36:50.860Z,9.73
2022-10-04T14:39:40.091Z,7.65
2022-10-04T14:42:24.292Z,6.18
2022-10-04T14:45:12.317Z,8.65
2022-10-04T14:47:58.217Z,7.47
2022-10-04T14:50:57.712Z,5.80
2022-10-04T14:53:47.810Z,10.77
2022-10-04T14:56:29.721Z,9.65
2022-10-04T14:59:17.425Z,10.48
2022-10-04T15:02:25.623Z,5.75
2022-10-04T15:05:08.275Z,10.60
2022-10-04T15:07:49.900Z,9.77
2022-10-04T15:10:38.088Z,8.55
2022-10-04T15:13:31.352Z,11.82
2022-10-04T15:15:58.873Z,9.68
2022-10-04T15:18:50.191Z,5.22
2022-10-04T15:21:53.213Z,9.23
2022-10-04T15:24:28.501Z,6.82
2022-10-04T15:27:22.521Z,11.52
2022-10-04T15:30:10.479Z,7.60
2022-10-04T15:32:48.682Z,6.20
2022-10-04T15:35:37.684Z,9.80
2022-10-04T15:38:19.581Z,7.20
2022-10-04T15:41:20.561Z,9.55
2022-10-04T15:43:54.002Z,8.40
2022-10-04T15:46:41.265Z,5.97
2022-10-04T15:49:32.929Z,9.32
2022-10-04T15:52:17.307Z,7.53
2022-10-04T15:57:45.732Z,8.88
2022-10-04T16:00:22.389Z,9.23
2022-10-04T16:03:10.898Z,10.38
2022-10-04T16:05:57.595Z,10.77
2022-10-04T16:08:49.324Z,7.13
2022-10-04T16:11:27.415Z,11.60
2022-10-04T16:14:24.954Z,11.68
2022-10-04T16:17:06.866Z,9.25
2022-10-04T16:19:48.605Z,8.75
2022-10-04T16:22:22.365Z,9.27
2022-10-04T16:24:53.552Z,6.32
2022-10-04T16:27:40.727Z,17.30
2022-10-04T16:30:55.686Z,11.60
2022-10-04T16:33:45.051Z,12.40
2022-10-04T16:36:25.062Z,13.20
2022-10-04T16:42:06.178Z,18.38
2022-10-04T16:44:56.665Z,10.00
2022-10-04T16:47:50.777Z,15.50
2022-10-04T16:50:55.625Z,11.73
2022-10-04T16:53:59.708Z,11.82
2022-10-04T16:56:32.824Z,12.30
2022-10-04T16:59:04.611Z,7.88
2022-10-04T17:01:55.217Z,7.90
2022-10-04T17:04:37.379Z,12.65
2022-10-04T17:07:23.143Z,9.07
2022-10-04T17:10:15.020Z,5.93
2022-10-04T17:12:59.847Z,11.63
2022-10-04T17:16:03.819Z,5.32
2022-10-04T17:18:44.636Z,5.95
2022-10-04T17:21:23.848Z,7.10
2022-10-04T17:24:14.412Z,5.38
2022-10-04T17:27:13.864Z,7.55
2022-10-04T17:29:51.558Z,7.70
2022-10-04T17:32:45.672Z,5.57
2022-10-04T17:35:50.004Z,7.85
2022-10-04T17:38:50.610Z,9.53
2022-10-04T17:41:41.156Z,8.20
2022-10-04T17:44:36.086Z,23.95
2022-10-04T17:47:58.834Z,41.00
2022-10-04T17:51:20.731Z,25.38
2022-10-04T17:54:16.016Z,26.88
2022-10-04T17:57:10.412Z,28.33
2022-10-04T17:59:51.805Z,16.45
2022-10-04T18:02:38.189Z,13.48
2022-10-04T18:05:23.037Z,15.20
2022-10-04T18:08:07.859Z,6.93
2022-10-04T18:10:57.956Z,52.40
2022-10-04T18:13:40.428Z,28.40
2022-10-04T18:16:29.448Z,15.85
2022-10-04T18:18:57.655Z,14.05
2022-10-04T18:21:30.624Z,20.92
2022-10-04T18:24:18.457Z,45.63
2022-10-04T18:27:05.687Z,31.55
2022-10-04T18:29:43.302Z,24.75
2022-10-04T18:32:28.086Z,23.88
2022-10-04T18:35:16.010Z,22.10
2022-10-04T18:37:42.713Z,17.67
2022-10-04T18:40:20.248Z,28.00
2022-10-04T18:43:33.284Z,27.17
2022-10-04T18:46:20.883Z,23.98
2022-10-04T18:48:56.359Z,27.88
2022-10-04T18:51:39.876Z,24.30
2022-10-04T18:54:25.000Z,29.92
2022-10-04T18:57:21.810Z,25.65
2022-10-04T19:00:32.283Z,27.70
2022-10-04T19:03:22.719Z,22.13
2022-10-04T19:06:25.126Z,21.92
2022-10-04T19:09:11.945Z,24.25
2022-10-04T19:11:54.280Z,28.05
2022-10-04T19:14:39.846Z,26.30
2022-10-04T19:17:33.764Z,29.17
2022-10-04T19:20:29.950Z,53.97
2022-10-04T19:23:19.497Z,43.08
2022-10-04T19:26:10.275Z,29.40
2022-10-04T19:28:38.583Z,18.98
2022-10-04T19:31:22.711Z,21.70
2022-10-04T19:33:55.406Z,23.42
2022-10-04T19:36:46.306Z,21.60
2022-10-04T19:39:25.061Z,20.58
2022-10-04T19:41:59.872Z,19.80
2022-10-04T19:44:51.140Z,21.58
2022-10-04T19:47:35.136Z,25.75
2022-10-04T19:50:26.197Z,34.97
2022-10-04T19:53:13.064Z,26.85
2022-10-04T19:55:55.793Z,27.67
2022-10-04T19:58:41.307Z,21.75
2022-10-04T20:01:21.270Z,22.70
2022-10-04T20:04:08.521Z,30.77
2022-10-04T20:06:35.776Z,24.77
2022-10-04T20:09:36.682Z,22.25
2022-10-04T20:12:25.355Z,21.75
2022-10-04T20:14:52.186Z,21.75
2022-10-04T20:17:33.016Z,15.23
2022-10-04T20:20:00.029Z,15.73
2022-10-04T20:22:29.986Z,16.85
2022-10-04T20:24:57.861Z,12.48
2022-10-04T20:27:33.744Z,10.57
2022-10-04T20:30:04.606Z,14.70
2022-10-04T20:32:34.261Z,16.45
2022-10-04T20:35:03.002Z,12.98
2022-10-04T20:37:45.048Z,13.10
2022-10-04T20:40:37.468Z,13.65
2022-10-04T20:43:16.081Z,13.50
2022-10-04T20:45:47.623Z,14.88
2022-10-04T20:48:20.454Z,11.07
2022-10-04T20:50:49.781Z,15.18
2022-10-04T20:53:21.675Z,10.68
2022-10-04T20:55:50.416Z,12.32
2022-10-04T20:58:32.240Z,8.35
2022-10-04T21:01:38.766Z,8.45
2022-10-04T21:04:33.126Z,8.05
2022-10-04T21:07:02.304Z,10.40
2022-10-04T21:09:33.788Z,12.63
2022-10-04T21:12:01.607Z,11.25
2022-10-04T21:14:31.938Z,9.88
2022-10-04T21:17:02.712Z,13.25
2022-10-04T21:19:33.107Z,9.32
2022-10-04T21:22:04.446Z,9.40
2022-10-04T21:24:40.130Z,8.48
2022-10-04T21:27:12.528Z,6.85
2022-10-04T21:29:39.969Z,8.13
2022-10-04T21:32:06.895Z,11.23
2022-10-04T21:34:53.585Z,7.97
2022-10-04T21:37:23.366Z,5.25
2022-10-04T21:39:50.160Z,9.13
2022-10-04T21:42:17.381Z,8.90
2022-10-04T21:44:44.195Z,7.85
2022-10-04T21:47:11.371Z,10.85
2022-10-04T21:49:38.175Z,9.02
2022-10-04T21:52:05.078Z,11.00
2022-10-04T21:54:31.953Z,5.90
2022-10-04T21:56:58.718Z,6.68
2022-10-04T21:59:25.904Z,6.10
2022-10-04T22:01:55.624Z,12.02
2022-10-04T22:04:22.987Z,7.43
2022-10-04T22:06:49.854Z,8.63
2022-10-04T22:09:19.397Z,7.72
2022-10-04T22:11:46.228Z,5.05
2022-10-04T22:14:13.180Z,8.68
2022-10-04T22:16:44.263Z,10.80
2022-10-04T22:19:11.228Z,13.02
2022-10-04T22:21:37.917Z,10.68
2022-10-04T22:24:21.814Z,7.70
2022-10-04T22:26:49.027Z,10.40
2022-10-04T22:29:18.831Z,6.65
2022-10-04T22:31:52.627Z,8.45
2022-10-04T22:34:21.556Z,13.75
2022-10-04T22:36:50.029Z,6.32
2022-10-04T22:39:45.510Z,10.18
2022-10-04T22:42:15.907Z,5.85
2022-10-04T22:44:44.426Z,10.68
2022-10-04T22:47:21.289Z,9.38
2022-10-04T22:49:54.391Z,8.35
2022-10-04T22:52:35.537Z,8.52
2022-10-04T22:55:06.288Z,7.90
2022-10-04T22:57:33.040Z,6.60
2022-10-04T22:59:59.962Z,11.95
2022-10-04T23:02:30.533Z,11.43
2022-10-04T23:05:13.504Z,6.30
2022-10-04T23:07:40.747Z,8.10
2022-10-04T23:10:30.422Z,10.98
2022-10-04T23:13:24.705Z,8.95
2022-10-04T23:15:52.471Z,4.53
2022-10-04T23:18:39.283Z,7.55
2022-10-04T23:21:30.432Z,9.88
2022-10-04T23:24:18.600Z,9.23
2022-10-04T23:26:57.322Z,10.68
2022-10-04T23:29:27.843Z,7.13
2022-10-04T23:32:01.897Z,13.50
2022-10-04T23:37:25.351Z,11.20
2022-10-04T23:39:54.313Z,13.07
2022-10-04T23:42:58.642Z,9.38
2022-10-04T23:45:48.076Z,7.72
2022-10-04T23:48:58.661Z,6.30
2022-10-04T23:51:52.891Z,11.88
2022-10-04T23:54:49.363Z,10.10
2022-10-04T23:57:31.182Z,5.93
